sensor_id;sensor_type;location;lat;lon;timestamp;P1;durP1;ratioP1;P2;durP2;ratioP2
19543;SDS011;9917;51.256;7.152;2022-07-23T00:00:45;27.15;;;15.40;;
19543;SDS011;9917;51.256;7.152;2022-07-23T00:03:12;27.48;;;15.63;;
19543;SDS011;9917;51.256;7.152;2022-07-23T00:05:38;30.48;;;16.20;;
19543;SDS011;9917;51.256;7.152;2022-07-23T00:08:04;24.45;;;15.52;;
19543;SDS011;9917;51.256;7.152;2022-07-23T00:10:30;27.58;;;16.10;;
19543;SDS011;9917;51.256;7.152;2022-07-23T00:12:56;26.05;;;15.52;;
19543;SDS011;9917;51.256;7.152;2022-07-23T00:15:23;25.02;;;15.07;;
19543;SDS011;9917;51.256;7.152;2022-07-23T00:17:50;27.42;;;15.80;;
19543;SDS011;9917;51.256;7.152;2022-07-23T00:20:18;28.55;;;15.40;;
19543;SDS011;9917;51.256;7.152;2022-07-23T00:22:47;26.92;;;14.75;;
19543;SDS011;9917;51.256;7.152;2022-07-23T00:25:13;26.60;;;14.65;;
19543;SDS011;9917;51.256;7.152;2022-07-23T00:27:38;26.75;;;15.68;;
19543;SDS011;9917;51.256;7.152;2022-07-23T00:30:05;28.75;;;15.93;;
19543;SDS011;9917;51.256;7.152;2022-07-23T00:32:33;23.85;;;14.63;;
19543;SDS011;9917;51.256;7.152;2022-07-23T00:35:10;28.55;;;14.55;;
19543;SDS011;9917;51.256;7.152;2022-07-23T00:37:36;26.58;;;15.75;;
19543;SDS011;9917;51.256;7.152;2022-07-23T00:40:02;26.23;;;15.18;;
19543;SDS011;9917;51.256;7.152;2022-07-23T00:42:30;28.05;;;16.35;;
19543;SDS011;9917;51.256;7.152;2022-07-23T00:44:56;31.45;;;16.13;;
19543;SDS011;9917;51.256;7.152;2022-07-23T00:47:22;29.92;;;16.50;;
19543;SDS011;9917;51.256;7.152;2022-07-23T00:49:50;27.27;;;15.98;;
19543;SDS011;9917;51.256;7.152;2022-07-23T00:52:16;24.92;;;15.30;;
19543;SDS011;9917;51.256;7.152;2022-07-23T00:54:41;30.63;;;15.85;;
19543;SDS011;9917;51.256;7.152;2022-07-23T00:57:08;24.75;;;15.30;;
19543;SDS011;9917;51.256;7.152;2022-07-23T00:59:34;29.83;;;15.52;;
19543;SDS011;9917;51.256;7.152;2022-07-23T01:05:23;24.83;;;14.30;;
19543;SDS011;9917;51.256;7.152;2022-07-23T01:07:49;25.98;;;15.38;;
19543;SDS011;9917;51.256;7.152;2022-07-23T01:10:15;28.15;;;14.68;;
19543;SDS011;9917;51.256;7.152;2022-07-23T01:12:42;27.65;;;15.07;;
19543;SDS011;9917;51.256;7.152;2022-07-23T01:15:08;25.50;;;15.00;;
19543;SDS011;9917;51.256;7.152;2022-07-23T01:17:34;24.55;;;13.50;;
19543;SDS011;9917;51.256;7.152;2022-07-23T01:20:00;25.30;;;15.30;;
19543;SDS011;9917;51.256;7.152;2022-07-23T01:22:28;21.65;;;12.90;;
19543;SDS011;9917;51.256;7.152;2022-07-23T01:24:54;24.13;;;13.57;;
19543;SDS011;9917;51.256;7.152;2022-07-23T01:27:20;22.20;;;13.40;;
19543;SDS011;9917;51.256;7.152;2022-07-23T01:29:46;26.38;;;14.07;;
19543;SDS011;9917;51.256;7.152;2022-07-23T01:32:12;24.48;;;14.50;;
19543;SDS011;9917;51.256;7.152;2022-07-23T01:34:38;23.67;;;14.18;;
19543;SDS011;9917;51.256;7.152;2022-07-23T01:37:04;23.13;;;14.48;;
19543;SDS011;9917;51.256;7.152;2022-07-23T01:39:31;22.75;;;13.82;;
19543;SDS011;9917;51.256;7.152;2022-07-23T01:41:57;30.42;;;14.75;;
19543;SDS011;9917;51.256;7.152;2022-07-23T01:44:23;22.48;;;13.02;;
19543;SDS011;9917;51.256;7.152;2022-07-23T01:46:50;24.55;;;14.00;;
19543;SDS011;9917;51.256;7.152;2022-07-23T01:49:15;23.23;;;13.48;;
19543;SDS011;9917;51.256;7.152;2022-07-23T01:51:41;28.75;;;15.20;;
19543;SDS011;9917;51.256;7.152;2022-07-23T01:54:07;29.35;;;15.65;;
19543;SDS011;9917;51.256;7.152;2022-07-23T01:56:34;23.98;;;14.55;;
19543;SDS011;9917;51.256;7.152;2022-07-23T01:59:00;21.88;;;13.68;;
19543;SDS011;9917;51.256;7.152;2022-07-23T02:01:26;26.35;;;14.57;;
19543;SDS011;9917;51.256;7.152;2022-07-23T02:03:52;26.98;;;16.05;;
19543;SDS011;9917;51.256;7.152;2022-07-23T02:06:18;26.88;;;14.88;;
19543;SDS011;9917;51.256;7.152;2022-07-23T02:08:44;30.13;;;15.13;;
19543;SDS011;9917;51.256;7.152;2022-07-23T02:11:10;25.70;;;14.45;;
19543;SDS011;9917;51.256;7.152;2022-07-23T02:13:37;24.35;;;14.00;;
19543;SDS011;9917;51.256;7.152;2022-07-23T02:16:03;23.45;;;14.20;;
19543;SDS011;9917;51.256;7.152;2022-07-23T02:18:29;26.90;;;14.63;;
19543;SDS011;9917;51.256;7.152;2022-07-23T02:20:55;26.95;;;15.55;;
19543;SDS011;9917;51.256;7.152;2022-07-23T02:23:21;28.27;;;14.88;;
19543;SDS011;9917;51.256;7.152;2022-07-23T02:25:47;26.00;;;15.38;;
19543;SDS011;9917;51.256;7.152;2022-07-23T02:28:13;31.38;;;17.27;;
19543;SDS011;9917;51.256;7.152;2022-07-23T02:30:41;28.10;;;14.90;;
19543;SDS011;9917;51.256;7.152;2022-07-23T02:33:06;26.65;;;15.15;;
19543;SDS011;9917;51.256;7.152;2022-07-23T02:35:32;25.38;;;15.32;;
19543;SDS011;9917;51.256;7.152;2022-07-23T02:37:58;28.77;;;15.88;;
19543;SDS011;9917;51.256;7.152;2022-07-23T02:40:24;28.08;;;14.80;;
19543;SDS011;9917;51.256;7.152;2022-07-23T02:42:50;27.00;;;14.38;;
19543;SDS011;9917;51.256;7.152;2022-07-23T02:45:16;27.23;;;14.35;;
19543;SDS011;9917;51.256;7.152;2022-07-23T02:47:43;25.88;;;13.85;;
19543;SDS011;9917;51.256;7.152;2022-07-23T02:50:09;25.52;;;14.60;;
19543;SDS011;9917;51.256;7.152;2022-07-23T02:52:35;29.92;;;15.13;;
19543;SDS011;9917;51.256;7.152;2022-07-23T02:55:01;25.00;;;14.77;;
19543;SDS011;9917;51.256;7.152;2022-07-23T02:57:28;25.35;;;14.45;;
19543;SDS011;9917;51.256;7.152;2022-07-23T02:59:54;26.38;;;14.98;;
19543;SDS011;9917;51.256;7.152;2022-07-23T03:02:20;26.33;;;14.32;;
19543;SDS011;9917;51.256;7.152;2022-07-23T03:04:48;25.70;;;13.45;;
19543;SDS011;9917;51.256;7.152;2022-07-23T03:07:14;23.90;;;12.48;;
19543;SDS011;9917;51.256;7.152;2022-07-23T03:09:40;26.05;;;13.35;;
19543;SDS011;9917;51.256;7.152;2022-07-23T03:12:06;22.08;;;12.93;;
19543;SDS011;9917;51.256;7.152;2022-07-23T03:14:32;24.80;;;13.80;;
19543;SDS011;9917;51.256;7.152;2022-07-23T03:16:58;25.55;;;13.65;;
19543;SDS011;9917;51.256;7.152;2022-07-23T03:19:24;25.08;;;13.32;;
19543;SDS011;9917;51.256;7.152;2022-07-23T03:21:51;24.17;;;13.85;;
19543;SDS011;9917;51.256;7.152;2022-07-23T03:24:17;27.80;;;14.05;;
19543;SDS011;9917;51.256;7.152;2022-07-23T03:26:43;22.48;;;12.85;;
19543;SDS011;9917;51.256;7.152;2022-07-23T03:29:09;22.40;;;11.98;;
19543;SDS011;9917;51.256;7.152;2022-07-23T03:31:35;25.30;;;12.90;;
19543;SDS011;9917;51.256;7.152;2022-07-23T03:34:01;22.20;;;12.63;;
19543;SDS011;9917;51.256;7.152;2022-07-23T03:36:27;22.25;;;12.55;;
19543;SDS011;9917;51.256;7.152;2022-07-23T03:38:54;22.42;;;12.43;;
19543;SDS011;9917;51.256;7.152;2022-07-23T03:41:20;22.08;;;12.63;;
19543;SDS011;9917;51.256;7.152;2022-07-23T03:43:46;21.15;;;12.27;;
19543;SDS011;9917;51.256;7.152;2022-07-23T03:46:12;20.75;;;11.98;;
19543;SDS011;9917;51.256;7.152;2022-07-23T03:48:38;21.15;;;11.82;;
19543;SDS011;9917;51.256;7.152;2022-07-23T03:51:04;23.38;;;12.77;;
19543;SDS011;9917;51.256;7.152;2022-07-23T03:53:30;21.63;;;11.43;;
19543;SDS011;9917;51.256;7.152;2022-07-23T03:55:58;25.10;;;13.30;;
19543;SDS011;9917;51.256;7.152;2022-07-23T03:58:24;21.48;;;12.18;;
19543;SDS011;9917;51.256;7.152;2022-07-23T04:00:50;23.73;;;13.02;;
19543;SDS011;9917;51.256;7.152;2022-07-23T04:03:16;20.85;;;12.27;;
19543;SDS011;9917;51.256;7.152;2022-07-23T04:05:42;26.75;;;13.68;;
19543;SDS011;9917;51.256;7.152;2022-07-23T04:08:08;20.85;;;11.15;;
19543;SDS011;9917;51.256;7.152;2022-07-23T04:10:34;23.55;;;12.13;;
19543;SDS011;9917;51.256;7.152;2022-07-23T04:13:01;20.25;;;10.57;;
19543;SDS011;9917;51.256;7.152;2022-07-23T04:15:27;23.77;;;12.25;;
19543;SDS011;9917;51.256;7.152;2022-07-23T04:17:53;18.90;;;11.30;;
19543;SDS011;9917;51.256;7.152;2022-07-23T04:20:19;18.10;;;11.38;;
19543;SDS011;9917;51.256;7.152;2022-07-23T04:22:45;18.25;;;10.48;;
19543;SDS011;9917;51.256;7.152;2022-07-23T04:25:11;18.02;;;9.95;;
19543;SDS011;9917;51.256;7.152;2022-07-23T04:27:37;20.30;;;10.52;;
19543;SDS011;9917;51.256;7.152;2022-07-23T04:30:05;19.35;;;10.80;;
19543;SDS011;9917;51.256;7.152;2022-07-23T04:32:32;18.95;;;10.02;;
19543;SDS011;9917;51.256;7.152;2022-07-23T04:34:57;17.00;;;9.43;;
19543;SDS011;9917;51.256;7.152;2022-07-23T04:37:24;17.17;;;9.70;;
19543;SDS011;9917;51.256;7.152;2022-07-23T04:39:49;17.02;;;9.45;;
19543;SDS011;9917;51.256;7.152;2022-07-23T04:42:15;19.08;;;10.15;;
19543;SDS011;9917;51.256;7.152;2022-07-23T04:44:41;21.42;;;9.65;;
19543;SDS011;9917;51.256;7.152;2022-07-23T04:47:09;15.65;;;10.25;;
19543;SDS011;9917;51.256;7.152;2022-07-23T04:49:34;19.65;;;9.90;;
19543;SDS011;9917;51.256;7.152;2022-07-23T04:52:01;17.65;;;10.00;;
19543;SDS011;9917;51.256;7.152;2022-07-23T04:54:27;15.73;;;9.38;;
19543;SDS011;9917;51.256;7.152;2022-07-23T04:56:53;16.25;;;9.70;;
19543;SDS011;9917;51.256;7.152;2022-07-23T04:59:19;16.77;;;10.68;;
19543;SDS011;9917;51.256;7.152;2022-07-23T05:01:45;15.98;;;9.73;;
19543;SDS011;9917;51.256;7.152;2022-07-23T05:04:12;20.42;;;11.32;;
19543;SDS011;9917;51.256;7.152;2022-07-23T05:06:38;18.27;;;10.25;;
19543;SDS011;9917;51.256;7.152;2022-07-23T05:09:04;16.73;;;8.98;;
19543;SDS011;9917;51.256;7.152;2022-07-23T05:11:30;18.85;;;11.23;;
19543;SDS011;9917;51.256;7.152;2022-07-23T05:13:56;18.63;;;11.02;;
19543;SDS011;9917;51.256;7.152;2022-07-23T05:16:22;18.08;;;10.68;;
19543;SDS011;9917;51.256;7.152;2022-07-23T05:18:48;20.27;;;11.07;;
19543;SDS011;9917;51.256;7.152;2022-07-23T05:21:15;18.30;;;10.25;;
19543;SDS011;9917;51.256;7.152;2022-07-23T05:23:41;21.25;;;12.05;;
19543;SDS011;9917;51.256;7.152;2022-07-23T05:26:07;19.08;;;11.00;;
19543;SDS011;9917;51.256;7.152;2022-07-23T05:28:33;20.55;;;12.07;;
19543;SDS011;9917;51.256;7.152;2022-07-23T05:31:00;23.45;;;13.48;;
19543;SDS011;9917;51.256;7.152;2022-07-23T05:33:26;22.05;;;12.65;;
19543;SDS011;9917;51.256;7.152;2022-07-23T05:35:52;25.13;;;12.40;;
19543;SDS011;9917;51.256;7.152;2022-07-23T05:38:19;21.73;;;12.63;;
19543;SDS011;9917;51.256;7.152;2022-07-23T05:40:45;24.08;;;11.63;;
19543;SDS011;9917;51.256;7.152;2022-07-23T05:43:11;21.10;;;12.85;;
19543;SDS011;9917;51.256;7.152;2022-07-23T05:45:37;20.33;;;12.35;;
19543;SDS011;9917;51.256;7.152;2022-07-23T05:48:03;24.17;;;13.52;;
19543;SDS011;9917;51.256;7.152;2022-07-23T05:50:29;23.65;;;13.15;;
19543;SDS011;9917;51.256;7.152;2022-07-23T05:52:55;26.63;;;13.65;;
19543;SDS011;9917;51.256;7.152;2022-07-23T05:55:23;25.63;;;14.55;;
19543;SDS011;9917;51.256;7.152;2022-07-23T05:57:48;20.15;;;13.18;;
19543;SDS011;9917;51.256;7.152;2022-07-23T06:00:14;21.38;;;12.95;;
19543;SDS011;9917;51.256;7.152;2022-07-23T06:02:40;20.38;;;12.30;;
19543;SDS011;9917;51.256;7.152;2022-07-23T06:05:07;23.10;;;13.65;;
19543;SDS011;9917;51.256;7.152;2022-07-23T06:07:33;18.85;;;11.77;;
19543;SDS011;9917;51.256;7.152;2022-07-23T06:09:59;19.50;;;12.18;;
19543;SDS011;9917;51.256;7.152;2022-07-23T06:12:27;24.65;;;14.55;;
19543;SDS011;9917;51.256;7.152;2022-07-23T06:14:52;20.08;;;12.25;;
19543;SDS011;9917;51.256;7.152;2022-07-23T06:17:19;19.70;;;12.27;;
19543;SDS011;9917;51.256;7.152;2022-07-23T06:19:45;19.88;;;12.32;;
19543;SDS011;9917;51.256;7.152;2022-07-23T06:22:11;17.83;;;10.85;;
19543;SDS011;9917;51.256;7.152;2022-07-23T06:24:37;19.65;;;11.82;;
19543;SDS011;9917;51.256;7.152;2022-07-23T06:27:03;19.20;;;11.27;;
19543;SDS011;9917;51.256;7.152;2022-07-23T06:29:30;18.98;;;10.07;;
19543;SDS011;9917;51.256;7.152;2022-07-23T06:31:56;22.15;;;11.82;;
19543;SDS011;9917;51.256;7.152;2022-07-23T06:34:22;20.88;;;11.93;;
19543;SDS011;9917;51.256;7.152;2022-07-23T06:36:48;19.02;;;11.15;;
19543;SDS011;9917;51.256;7.152;2022-07-23T06:39:14;15.90;;;10.57;;
19543;SDS011;9917;51.256;7.152;2022-07-23T06:41:40;16.23;;;9.93;;
19543;SDS011;9917;51.256;7.152;2022-07-23T06:44:06;19.45;;;11.48;;
19543;SDS011;9917;51.256;7.152;2022-07-23T06:46:33;17.40;;;11.25;;
19543;SDS011;9917;51.256;7.152;2022-07-23T06:48:59;15.65;;;9.13;;
19543;SDS011;9917;51.256;7.152;2022-07-23T06:51:26;14.35;;;9.07;;
19543;SDS011;9917;51.256;7.152;2022-07-23T06:53:52;13.20;;;7.70;;
19543;SDS011;9917;51.256;7.152;2022-07-23T06:56:18;13.57;;;8.35;;
19543;SDS011;9917;51.256;7.152;2022-07-23T06:58:44;11.32;;;7.45;;
19543;SDS011;9917;51.256;7.152;2022-07-23T07:01:10;13.35;;;8.05;;
19543;SDS011;9917;51.256;7.152;2022-07-23T07:03:37;12.55;;;8.07;;
19543;SDS011;9917;51.256;7.152;2022-07-23T07:06:03;11.50;;;6.78;;
19543;SDS011;9917;51.256;7.152;2022-07-23T07:08:29;11.95;;;7.38;;
19543;SDS011;9917;51.256;7.152;2022-07-23T07:10:55;9.95;;;6.50;;
19543;SDS011;9917;51.256;7.152;2022-07-23T07:13:22;11.35;;;7.32;;
19543;SDS011;9917;51.256;7.152;2022-07-23T07:15:48;10.75;;;6.25;;
19543;SDS011;9917;51.256;7.152;2022-07-23T07:18:14;10.82;;;6.40;;
19543;SDS011;9917;51.256;7.152;2022-07-23T07:20:41;12.88;;;7.45;;
19543;SDS011;9917;51.256;7.152;2022-07-23T07:23:07;10.00;;;6.00;;
19543;SDS011;9917;51.256;7.152;2022-07-23T07:25:33;11.10;;;6.70;;
19543;SDS011;9917;51.256;7.152;2022-07-23T07:27:59;12.80;;;8.32;;
19543;SDS011;9917;51.256;7.152;2022-07-23T07:30:25;10.23;;;7.10;;
19543;SDS011;9917;51.256;7.152;2022-07-23T07:32:51;14.80;;;8.75;;
19543;SDS011;9917;51.256;7.152;2022-07-23T07:35:16;16.15;;;8.85;;
19543;SDS011;9917;51.256;7.152;2022-07-23T07:37:44;18.38;;;10.30;;
19543;SDS011;9917;51.256;7.152;2022-07-23T07:40:10;16.67;;;10.88;;
19543;SDS011;9917;51.256;7.152;2022-07-23T07:42:43;17.70;;;10.98;;
19543;SDS011;9917;51.256;7.152;2022-07-23T07:45:09;20.30;;;12.13;;
19543;SDS011;9917;51.256;7.152;2022-07-23T07:47:36;18.75;;;11.55;;
19543;SDS011;9917;51.256;7.152;2022-07-23T07:50:01;17.95;;;12.35;;
19543;SDS011;9917;51.256;7.152;2022-07-23T07:52:28;17.48;;;11.38;;
19543;SDS011;9917;51.256;7.152;2022-07-23T07:54:55;22.50;;;13.38;;
19543;SDS011;9917;51.256;7.152;2022-07-23T07:57:20;21.92;;;14.32;;
19543;SDS011;9917;51.256;7.152;2022-07-23T07:59:46;20.52;;;14.30;;
19543;SDS011;9917;51.256;7.152;2022-07-23T08:02:12;22.88;;;13.80;;
19543;SDS011;9917;51.256;7.152;2022-07-23T08:04:38;23.15;;;15.52;;
19543;SDS011;9917;51.256;7.152;2022-07-23T08:07:05;22.73;;;13.88;;
19543;SDS011;9917;51.256;7.152;2022-07-23T08:09:31;21.33;;;14.48;;
19543;SDS011;9917;51.256;7.152;2022-07-23T08:11:58;23.27;;;14.18;;
19543;SDS011;9917;51.256;7.152;2022-07-23T08:14:24;17.98;;;13.73;;
19543;SDS011;9917;51.256;7.152;2022-07-23T08:16:50;24.92;;;16.30;;
19543;SDS011;9917;51.256;7.152;2022-07-23T08:19:16;20.95;;;14.10;;
19543;SDS011;9917;51.256;7.152;2022-07-23T08:21:42;21.00;;;13.85;;
19543;SDS011;9917;51.256;7.152;2022-07-23T08:24:08;25.42;;;16.88;;
19543;SDS011;9917;51.256;7.152;2022-07-23T08:26:34;20.92;;;14.52;;
19543;SDS011;9917;51.256;7.152;2022-07-23T08:29:01;22.48;;;13.38;;
19543;SDS011;9917;51.256;7.152;2022-07-23T08:31:27;18.02;;;12.60;;
19543;SDS011;9917;51.256;7.152;2022-07-23T08:33:56;16.75;;;11.80;;
19543;SDS011;9917;51.256;7.152;2022-07-23T08:36:25;17.13;;;11.77;;
19543;SDS011;9917;51.256;7.152;2022-07-23T08:38:51;17.77;;;11.05;;
19543;SDS011;9917;51.256;7.152;2022-07-23T08:41:17;16.55;;;10.77;;
19543;SDS011;9917;51.256;7.152;2022-07-23T08:43:43;13.63;;;10.18;;
19543;SDS011;9917;51.256;7.152;2022-07-23T08:46:11;15.07;;;10.02;;
19543;SDS011;9917;51.256;7.152;2022-07-23T08:48:39;12.63;;;9.15;;
19543;SDS011;9917;51.256;7.152;2022-07-23T08:51:05;14.20;;;9.38;;
19543;SDS011;9917;51.256;7.152;2022-07-23T08:53:32;12.40;;;9.00;;
19543;SDS011;9917;51.256;7.152;2022-07-23T08:56:00;11.32;;;7.68;;
19543;SDS011;9917;51.256;7.152;2022-07-23T08:58:28;10.52;;;7.68;;
19543;SDS011;9917;51.256;7.152;2022-07-23T09:00:54;11.05;;;8.32;;
19543;SDS011;9917;51.256;7.152;2022-07-23T09:03:24;10.15;;;9.00;;
19543;SDS011;9917;51.256;7.152;2022-07-23T09:05:52;12.18;;;9.23;;
19543;SDS011;9917;51.256;7.152;2022-07-23T09:08:18;12.05;;;8.82;;
19543;SDS011;9917;51.256;7.152;2022-07-23T09:10:49;10.30;;;9.25;;
19543;SDS011;9917;51.256;7.152;2022-07-23T09:13:28;10.00;;;8.57;;
19543;SDS011;9917;51.256;7.152;2022-07-23T09:15:56;15.52;;;10.63;;
19543;SDS011;9917;51.256;7.152;2022-07-23T09:18:34;10.80;;;8.15;;
19543;SDS011;9917;51.256;7.152;2022-07-23T09:21:05;9.82;;;8.23;;
19543;SDS011;9917;51.256;7.152;2022-07-23T09:23:50;8.82;;;7.30;;
19543;SDS011;9917;51.256;7.152;2022-07-23T09:26:19;9.75;;;7.82;;
19543;SDS011;9917;51.256;7.152;2022-07-23T09:28:55;6.90;;;5.95;;
19543;SDS011;9917;51.256;7.152;2022-07-23T09:31:25;9.05;;;7.15;;
19543;SDS011;9917;51.256;7.152;2022-07-23T09:34:06;9.93;;;6.97;;
19543;SDS011;9917;51.256;7.152;2022-07-23T09:36:33;10.90;;;6.60;;
19543;SDS011;9917;51.256;7.152;2022-07-23T09:38:59;7.85;;;5.90;;
19543;SDS011;9917;51.256;7.152;2022-07-23T09:41:33;8.90;;;7.55;;
19543;SDS011;9917;51.256;7.152;2022-07-23T09:44:15;8.63;;;6.65;;
19543;SDS011;9917;51.256;7.152;2022-07-23T09:46:41;6.45;;;5.45;;
19543;SDS011;9917;51.256;7.152;2022-07-23T09:49:24;6.55;;;4.93;;
19543;SDS011;9917;51.256;7.152;2022-07-23T09:51:54;7.43;;;5.00;;
19543;SDS011;9917;51.256;7.152;2022-07-23T09:54:22;6.47;;;4.35;;
19543;SDS011;9917;51.256;7.152;2022-07-23T09:56:51;5.72;;;4.07;;
19543;SDS011;9917;51.256;7.152;2022-07-23T09:59:21;5.60;;;3.90;;
19543;SDS011;9917;51.256;7.152;2022-07-23T10:01:49;5.20;;;4.07;;
19543;SDS011;9917;51.256;7.152;2022-07-23T10:04:16;6.00;;;4.22;;
19543;SDS011;9917;51.256;7.152;2022-07-23T10:06:45;6.07;;;4.70;;
19543;SDS011;9917;51.256;7.152;2022-07-23T10:09:11;6.78;;;4.53;;
19543;SDS011;9917;51.256;7.152;2022-07-23T10:11:37;7.20;;;4.30;;
19543;SDS011;9917;51.256;7.152;2022-07-23T10:14:04;6.10;;;4.50;;
19543;SDS011;9917;51.256;7.152;2022-07-23T10:16:33;6.10;;;4.13;;
19543;SDS011;9917;51.256;7.152;2022-07-23T10:18:59;6.35;;;4.57;;
19543;SDS011;9917;51.256;7.152;2022-07-23T10:21:30;6.38;;;4.38;;
19543;SDS011;9917;51.256;7.152;2022-07-23T10:24:08;3.70;;;3.30;;
19543;SDS011;9917;51.256;7.152;2022-07-23T10:26:41;6.30;;;3.83;;
19543;SDS011;9917;51.256;7.152;2022-07-23T10:29:19;4.25;;;3.20;;
19543;SDS011;9917;51.256;7.152;2022-07-23T10:31:58;5.43;;;3.65;;
19543;SDS011;9917;51.256;7.152;2022-07-23T10:34:33;4.90;;;3.67;;
19543;SDS011;9917;51.256;7.152;2022-07-23T10:37:07;5.50;;;4.00;;
19543;SDS011;9917;51.256;7.152;2022-07-23T10:39:40;5.90;;;3.47;;
19543;SDS011;9917;51.256;7.152;2022-07-23T10:42:07;8.15;;;4.43;;
19543;SDS011;9917;51.256;7.152;2022-07-23T10:44:38;5.40;;;3.17;;
19543;SDS011;9917;51.256;7.152;2022-07-23T10:47:05;4.25;;;3.40;;
19543;SDS011;9917;51.256;7.152;2022-07-23T10:49:32;5.95;;;4.15;;
19543;SDS011;9917;51.256;7.152;2022-07-23T10:52:15;5.85;;;4.50;;
19543;SDS011;9917;51.256;7.152;2022-07-23T10:54:44;4.65;;;3.22;;
19543;SDS011;9917;51.256;7.152;2022-07-23T10:57:11;4.50;;;3.78;;
19543;SDS011;9917;51.256;7.152;2022-07-23T11:02:40;4.30;;;3.90;;
19543;SDS011;9917;51.256;7.152;2022-07-23T11:05:07;4.43;;;3.20;;
19543;SDS011;9917;51.256;7.152;2022-07-23T11:07:35;4.70;;;3.35;;
19543;SDS011;9917;51.256;7.152;2022-07-23T11:10:03;3.70;;;2.60;;
19543;SDS011;9917;51.256;7.152;2022-07-23T11:12:33;3.92;;;3.15;;
19543;SDS011;9917;51.256;7.152;2022-07-23T11:14:59;4.90;;;2.70;;
19543;SDS011;9917;51.256;7.152;2022-07-23T11:17:27;5.15;;;3.22;;
19543;SDS011;9917;51.256;7.152;2022-07-23T11:20:12;4.22;;;3.30;;
19543;SDS011;9917;51.256;7.152;2022-07-23T11:22:46;4.85;;;3.00;;
19543;SDS011;9917;51.256;7.152;2022-07-23T11:25:29;4.38;;;3.20;;
19543;SDS011;9917;51.256;7.152;2022-07-23T11:28:07;5.35;;;2.75;;
19543;SDS011;9917;51.256;7.152;2022-07-23T11:30:40;3.40;;;2.70;;
19543;SDS011;9917;51.256;7.152;2022-07-23T11:33:18;4.43;;;2.75;;
19543;SDS011;9917;51.256;7.152;2022-07-23T11:35:45;5.97;;;3.67;;
19543;SDS011;9917;51.256;7.152;2022-07-23T11:38:13;4.07;;;2.60;;
19543;SDS011;9917;51.256;7.152;2022-07-23T11:40:43;6.18;;;2.47;;
19543;SDS011;9917;51.256;7.152;2022-07-23T11:43:10;3.55;;;2.42;;
19543;SDS011;9917;51.256;7.152;2022-07-23T11:45:39;3.17;;;2.47;;
19543;SDS011;9917;51.256;7.152;2022-07-23T11:48:06;5.88;;;2.40;;
19543;SDS011;9917;51.256;7.152;2022-07-23T11:50:33;2.95;;;2.30;;
19543;SDS011;9917;51.256;7.152;2022-07-23T11:53:00;3.42;;;2.20;;
19543;SDS011;9917;51.256;7.152;2022-07-23T11:55:26;3.72;;;2.58;;
19543;SDS011;9917;51.256;7.152;2022-07-23T11:57:54;3.15;;;1.80;;
19543;SDS011;9917;51.256;7.152;2022-07-23T12:00:21;4.75;;;1.77;;
19543;SDS011;9917;51.256;7.152;2022-07-23T12:02:49;3.17;;;1.77;;
19543;SDS011;9917;51.256;7.152;2022-07-23T12:05:16;4.63;;;2.92;;
19543;SDS011;9917;51.256;7.152;2022-07-23T12:07:44;2.88;;;1.30;;
19543;SDS011;9917;51.256;7.152;2022-07-23T12:10:12;5.32;;;2.10;;
19543;SDS011;9917;51.256;7.152;2022-07-23T12:12:40;2.70;;;1.20;;
19543;SDS011;9917;51.256;7.152;2022-07-23T12:15:09;1.70;;;1.20;;
19543;SDS011;9917;51.256;7.152;2022-07-23T12:17:36;1.88;;;1.25;;
19543;SDS011;9917;51.256;7.152;2022-07-23T12:20:03;2.83;;;1.20;;
19543;SDS011;9917;51.256;7.152;2022-07-23T12:22:35;2.53;;;1.17;;
19543;SDS011;9917;51.256;7.152;2022-07-23T12:25:06;5.65;;;1.90;;
19543;SDS011;9917;51.256;7.152;2022-07-23T12:27:33;4.32;;;1.40;;
19543;SDS011;9917;51.256;7.152;2022-07-23T12:32:54;2.70;;;1.60;;
19543;SDS011;9917;51.256;7.152;2022-07-23T12:35:22;3.42;;;1.45;;
19543;SDS011;9917;51.256;7.152;2022-07-23T12:37:58;2.35;;;1.60;;
19543;SDS011;9917;51.256;7.152;2022-07-23T12:40:26;4.95;;;1.50;;
19543;SDS011;9917;51.256;7.152;2022-07-23T12:42:54;3.28;;;1.40;;
19543;SDS011;9917;51.256;7.152;2022-07-23T12:45:23;2.17;;;1.10;;
19543;SDS011;9917;51.256;7.152;2022-07-23T12:50:41;4.25;;;1.60;;
19543;SDS011;9917;51.256;7.152;2022-07-23T12:53:11;3.22;;;1.42;;
19543;SDS011;9917;51.256;7.152;2022-07-23T12:55:40;3.80;;;1.25;;
19543;SDS011;9917;51.256;7.152;2022-07-23T12:58:07;2.70;;;1.08;;
19543;SDS011;9917;51.256;7.152;2022-07-23T13:00:54;2.85;;;1.10;;
19543;SDS011;9917;51.256;7.152;2022-07-23T13:03:24;4.35;;;1.30;;
19543;SDS011;9917;51.256;7.152;2022-07-23T13:05:51;3.70;;;1.33;;
19543;SDS011;9917;51.256;7.152;2022-07-23T13:08:18;3.28;;;1.20;;
19543;SDS011;9917;51.256;7.152;2022-07-23T13:10:44;3.15;;;0.75;;
19543;SDS011;9917;51.256;7.152;2022-07-23T13:13:10;4.55;;;0.90;;
19543;SDS011;9917;51.256;7.152;2022-07-23T13:15:36;3.00;;;1.10;;
19543;SDS011;9917;51.256;7.152;2022-07-23T13:18:02;2.35;;;1.15;;
19543;SDS011;9917;51.256;7.152;2022-07-23T13:20:29;3.38;;;1.27;;
19543;SDS011;9917;51.256;7.152;2022-07-23T13:22:56;2.83;;;1.65;;
19543;SDS011;9917;51.256;7.152;2022-07-23T13:25:22;3.83;;;1.50;;
19543;SDS011;9917;51.256;7.152;2022-07-23T13:27:48;3.03;;;1.15;;
19543;SDS011;9917;51.256;7.152;2022-07-23T13:30:14;2.70;;;1.50;;
19543;SDS011;9917;51.256;7.152;2022-07-23T13:32:40;3.80;;;1.85;;
19543;SDS011;9917;51.256;7.152;2022-07-23T13:35:06;4.97;;;2.08;;
19543;SDS011;9917;51.256;7.152;2022-07-23T13:37:33;3.78;;;1.42;;
19543;SDS011;9917;51.256;7.152;2022-07-23T13:39:59;3.40;;;1.63;;
19543;SDS011;9917;51.256;7.152;2022-07-23T13:42:25;4.55;;;1.35;;
19543;SDS011;9917;51.256;7.152;2022-07-23T13:44:51;2.92;;;1.40;;
19543;SDS011;9917;51.256;7.152;2022-07-23T13:47:17;4.97;;;1.10;;
19543;SDS011;9917;51.256;7.152;2022-07-23T13:49:44;2.58;;;1.15;;
19543;SDS011;9917;51.256;7.152;2022-07-23T13:52:09;2.25;;;1.10;;
19543;SDS011;9917;51.256;7.152;2022-07-23T13:54:37;2.35;;;1.20;;
19543;SDS011;9917;51.256;7.152;2022-07-23T13:57:02;3.10;;;1.30;;
19543;SDS011;9917;51.256;7.152;2022-07-23T13:59:28;5.20;;;2.10;;
19543;SDS011;9917;51.256;7.152;2022-07-23T14:01:54;4.07;;;2.17;;
19543;SDS011;9917;51.256;7.152;2022-07-23T14:04:21;6.13;;;2.15;;
19543;SDS011;9917;51.256;7.152;2022-07-23T14:06:47;5.32;;;2.20;;
19543;SDS011;9917;51.256;7.152;2022-07-23T14:09:13;2.55;;;1.90;;
19543;SDS011;9917;51.256;7.152;2022-07-23T14:11:40;3.90;;;1.70;;
19543;SDS011;9917;51.256;7.152;2022-07-23T14:14:06;3.03;;;1.48;;
19543;SDS011;9917;51.256;7.152;2022-07-23T14:16:31;3.30;;;1.40;;
19543;SDS011;9917;51.256;7.152;2022-07-23T14:18:57;2.40;;;1.48;;
19543;SDS011;9917;51.256;7.152;2022-07-23T14:21:23;1.70;;;1.30;;
19543;SDS011;9917;51.256;7.152;2022-07-23T14:23:49;3.28;;;1.63;;
19543;SDS011;9917;51.256;7.152;2022-07-23T14:26:15;5.13;;;2.92;;
19543;SDS011;9917;51.256;7.152;2022-07-23T14:28:43;3.95;;;2.80;;
19543;SDS011;9917;51.256;7.152;2022-07-23T14:31:08;5.30;;;3.10;;
19543;SDS011;9917;51.256;7.152;2022-07-23T14:33:35;4.25;;;2.40;;
19543;SDS011;9917;51.256;7.152;2022-07-23T14:36:01;6.53;;;2.33;;
19543;SDS011;9917;51.256;7.152;2022-07-23T14:38:27;6.00;;;3.30;;
19543;SDS011;9917;51.256;7.152;2022-07-23T14:40:53;11.05;;;6.85;;
19543;SDS011;9917;51.256;7.152;2022-07-23T14:43:19;7.22;;;4.40;;
19543;SDS011;9917;51.256;7.152;2022-07-23T14:45:46;5.63;;;2.22;;
19543;SDS011;9917;51.256;7.152;2022-07-23T14:48:12;4.85;;;2.03;;
19543;SDS011;9917;51.256;7.152;2022-07-23T14:50:38;5.28;;;2.47;;
19543;SDS011;9917;51.256;7.152;2022-07-23T14:53:05;4.40;;;2.72;;
19543;SDS011;9917;51.256;7.152;2022-07-23T14:55:31;3.63;;;1.92;;
19543;SDS011;9917;51.256;7.152;2022-07-23T14:57:57;8.15;;;4.78;;